createdAt,value
2022-11-04T00:01:56.602Z,10.80
2022-11-04T00:04:28.983Z,10.80
2022-11-04T00:06:57.878Z,10.80
2022-11-04T00:09:30.543Z,10.80
2022-11-04T00:12:17.535Z,10.80
2022-11-04T00:14:45.215Z,10.80
2022-11-04T00:17:19.759Z,10.80
2022-11-04T00:20:12.819Z,10.80
2022-11-04T00:23:01.843Z,10.80
2022-11-04T00:25:48.480Z,10.80
2022-11-04T00:28:37.764Z,10.80
2022-11-04T00:31:26.872Z,10.80
2022-11-04T00:33:57.850Z,10.80
2022-11-04T00:36:26.899Z,10.80
2022-11-04T00:38:54.838Z,10.80
2022-11-04T00:41:30.158Z,10.80
2022-11-04T00:44:01.937Z,10.80
2022-11-04T00:46:32.669Z,10.80
2022-11-04T00:49:00.420Z,10.80
2022-11-04T00:51:28.855Z,10.80
2022-11-04T00:53:58.214Z,10.80
2022-11-04T00:56:26.245Z,10.82
2022-11-04T00:58:53.932Z,10.88
2022-11-04T01:01:22.065Z,10.90
2022-11-04T01:03:53.416Z,10.90
2022-11-04T01:06:23.651Z,10.88
2022-11-04T01:09:08.294Z,10.88
2022-11-04T01:11:36.043Z,10.84
2022-11-04T01:14:04.304Z,10.82
2022-11-04T01:16:32.065Z,10.84
2022-11-04T01:18:59.799Z,10.90
2022-11-04T01:21:27.533Z,10.90
2022-11-04T01:23:56.175Z,10.90
2022-11-04T01:26:26.495Z,10.90
2022-11-04T01:28:58.157Z,10.90
2022-11-04T01:31:30.479Z,10.90
2022-11-04T01:33:59.164Z,10.90
2022-11-04T01:36:28.487Z,10.90
2022-11-04T01:38:57.407Z,10.98
2022-11-04T01:41:29.583Z,11.00
2022-11-04T01:44:24.139Z,11.00
2022-11-04T01:46:54.210Z,11.00
2022-11-04T01:49:40.703Z,11.00
2022-11-04T01:52:20.095Z,11.00
2022-11-04T01:54:52.162Z,11.00
2022-11-04T01:57:30.557Z,11.00
2022-11-04T02:00:04.137Z,11.00
2022-11-04T02:02:32.823Z,10.98
2022-11-04T02:05:00.509Z,10.98
2022-11-04T02:07:28.959Z,11.00
2022-11-04T02:09:57.864Z,11.00
2022-11-04T02:12:44.501Z,11.00
2022-11-04T02:15:12.336Z,11.00
2022-11-04T02:18:18.297Z,11.00
2022-11-04T02:21:06.445Z,11.00
2022-11-04T02:24:10.530Z,11.00
2022-11-04T02:26:53.359Z,11.00
2022-11-04T02:29:50.762Z,11.00
2022-11-04T02:32:53.158Z,11.00
2022-11-04T02:35:30.590Z,11.00
2022-11-04T02:38:50.643Z,11.00
2022-11-04T02:41:43.300Z,11.00
2022-11-04T02:44:38.236Z,11.00
2022-11-04T02:47:21.080Z,11.00
2022-11-04T02:50:03.012Z,11.00
2022-11-04T02:52:53.666Z,11.04
2022-11-04T02:55:38.303Z,11.10
2022-11-04T02:58:14.452Z,11.10
2022-11-04T03:00:44.594Z,11.10
2022-11-04T03:03:39.822Z,11.10
2022-11-04T03:06:13.493Z,11.08
2022-11-04T03:08:51.299Z,11.02
2022-11-04T03:11:24.592Z,11.00
2022-11-04T03:14:06.309Z,11.00
2022-11-04T03:16:47.325Z,11.00
2022-11-04T03:19:54.991Z,11.00
2022-11-04T03:22:29.282Z,11.00
2022-11-04T03:24:58.096Z,11.00
2022-11-04T03:27:50.693Z,11.00
2022-11-04T03:30:22.536Z,11.00
2022-11-04T03:33:27.311Z,10.94
2022-11-04T03:35:55.243Z,10.90
2022-11-04T03:38:23.345Z,10.90
2022-11-04T03:40:52.126Z,10.90
2022-11-04T03:43:25.989Z,10.90
2022-11-04T03:45:55.552Z,10.90
2022-11-04T03:48:24.034Z,10.96
2022-11-04T03:50:51.913Z,10.94
2022-11-04T03:56:21.399Z,10.96
2022-11-04T03:59:26.474Z,10.90
2022-11-04T04:02:08.594Z,10.90
2022-11-04T04:04:53.281Z,10.90
2022-11-04T04:08:24.363Z,10.90
2022-11-04T04:11:18.962Z,10.90
2022-11-04T04:14:36.845Z,10.90
2022-11-04T04:17:32.420Z,10.90
2022-11-04T04:20:14.231Z,10.90
2022-11-04T04:23:28.953Z,10.94
2022-11-04T04:26:20.789Z,10.90
2022-11-04T04:28:51.703Z,10.90
2022-11-04T04:31:40.493Z,10.90
2022-11-04T04:34:08.904Z,10.90
2022-11-04T04:36:56.111Z,10.90
2022-11-04T04:39:51.295Z,10.90
2022-11-04T04:42:38.988Z,10.90
2022-11-04T04:45:08.121Z,10.90
2022-11-04T04:47:46.926Z,10.90
2022-11-04T04:50:19.146Z,10.90
2022-11-04T04:52:50.747Z,10.90
2022-11-04T04:55:19.189Z,10.90
2022-11-04T04:57:46.915Z,10.80
2022-11-04T05:00:19.229Z,10.80
2022-11-04T05:02:48.082Z,10.80
2022-11-04T05:05:16.726Z,10.80
2022-11-04T05:07:44.921Z,10.80
2022-11-04T05:10:14.759Z,10.82
2022-11-04T05:13:02.096Z,10.88
2022-11-04T05:15:31.680Z,10.90
2022-11-04T05:18:02.171Z,10.86
2022-11-04T05:20:32.863Z,10.82
2022-11-04T05:23:00.563Z,10.80
2022-11-04T05:25:28.720Z,10.80
2022-11-04T05:28:01.449Z,10.82
2022-11-04T05:30:29.584Z,10.80
2022-11-04T05:33:00.094Z,10.88
2022-11-04T05:35:31.839Z,10.90
2022-11-04T05:37:59.664Z,10.90
2022-11-04T05:40:27.542Z,10.90
2022-11-04T05:42:59.296Z,10.90
2022-11-04T05:45:28.814Z,10.90
2022-11-04T05:48:01.782Z,10.90
2022-11-04T05:50:32.440Z,10.90
2022-11-04T05:53:01.203Z,10.88
2022-11-04T05:55:29.260Z,10.80
2022-11-04T05:57:58.128Z,10.80
2022-11-04T06:00:27.568Z,10.80
2022-11-04T06:02:58.598Z,10.80
2022-11-04T06:05:28.064Z,10.84
2022-11-04T06:07:57.072Z,10.84
2022-11-04T06:10:25.416Z,10.90
2022-11-04T06:12:53.184Z,10.90
2022-11-04T06:15:20.880Z,10.88
2022-11-04T06:17:48.488Z,10.90
2022-11-04T06:20:16.555Z,10.90
2022-11-04T06:22:44.269Z,10.90
2022-11-04T06:25:12.093Z,10.90
2022-11-04T06:27:40.075Z,10.90
2022-11-04T06:30:08.883Z,10.90
2022-11-04T06:32:36.553Z,10.90
2022-11-04T06:35:04.504Z,10.90
2022-11-04T06:37:32.137Z,10.90
2022-11-04T06:39:59.811Z,10.90
2022-11-04T06:42:28.215Z,10.90
2022-11-04T06:44:56.129Z,10.90
2022-11-04T06:47:25.063Z,10.90
2022-11-04T06:49:52.979Z,10.90
2022-11-04T06:52:20.627Z,10.90
2022-11-04T06:54:48.335Z,10.90
2022-11-04T06:57:16.023Z,10.90
2022-11-04T06:59:43.672Z,10.90
2022-11-04T07:02:11.537Z,10.90
2022-11-04T07:04:39.218Z,10.90
2022-11-04T07:07:06.981Z,10.90
2022-11-04T07:09:35.445Z,11.00
2022-11-04T07:12:03.220Z,11.00
2022-11-04T07:14:31.350Z,11.00
2022-11-04T07:16:58.996Z,11.00
2022-11-04T07:19:26.652Z,11.00
2022-11-04T07:21:54.288Z,11.00
2022-11-04T07:24:22.010Z,11.00
2022-11-04T07:26:49.835Z,11.00
2022-11-04T07:29:17.766Z,11.00
2022-11-04T07:31:45.637Z,11.00
2022-11-04T07:34:13.494Z,11.00
2022-11-04T07:36:41.305Z,11.00
2022-11-04T07:39:09.139Z,11.00
2022-11-04T07:41:37.086Z,11.00
2022-11-04T07:44:05.645Z,11.10
2022-11-04T07:46:33.566Z,11.10
2022-11-04T07:49:01.332Z,11.10
2022-11-04T07:51:32.401Z,11.10
2022-11-04T07:54:01.216Z,11.20
2022-11-04T07:56:28.836Z,11.20
2022-11-04T07:58:56.486Z,11.14
2022-11-04T08:01:25.064Z,11.12
2022-11-04T08:03:53.223Z,11.20
2022-11-04T08:06:22.396Z,11.18
2022-11-04T08:08:54.055Z,11.20
2022-11-04T08:11:28.420Z,11.20
2022-11-04T08:13:56.868Z,11.16
2022-11-04T08:16:30.006Z,11.20
2022-11-04T08:19:02.406Z,11.20
2022-11-04T08:21:32.615Z,11.20
2022-11-04T08:24:03.348Z,11.20
2022-11-04T08:26:30.996Z,11.20
2022-11-04T08:28:59.396Z,11.20
2022-11-04T08:31:30.656Z,11.20
2022-11-04T08:33:58.256Z,11.20
2022-11-04T08:36:34.390Z,11.26
2022-11-04T08:39:10.949Z,11.30
2022-11-04T08:41:43.017Z,11.30
2022-11-04T08:44:14.204Z,11.30
2022-11-04T08:46:44.904Z,11.30
2022-11-04T08:49:16.326Z,11.30
2022-11-04T08:51:49.644Z,11.36
2022-11-04T08:54:17.321Z,11.40
2022-11-04T08:56:45.052Z,11.38
2022-11-04T08:59:12.664Z,11.40
2022-11-04T09:01:40.897Z,11.40
2022-11-04T09:04:12.600Z,11.40
2022-11-04T09:06:44.899Z,11.40
2022-11-04T09:09:17.844Z,11.40
2022-11-04T09:11:47.365Z,11.40
2022-11-04T09:14:15.388Z,11.40
2022-11-04T09:16:43.136Z,11.40
2022-11-04T09:19:10.782Z,11.40
2022-11-04T09:21:38.483Z,11.48
2022-11-04T09:24:07.779Z,11.50
2022-11-04T09:26:36.622Z,11.50
2022-11-04T09:29:04.451Z,11.50
2022-11-04T09:31:32.159Z,11.50
2022-11-04T09:33:59.842Z,11.50
2022-11-04T09:36:29.169Z,11.50
2022-11-04T09:38:57.234Z,11.52
2022-11-04T09:42:14.974Z,11.50
2022-11-04T09:45:21.229Z,11.50
2022-11-04T09:47:56.270Z,11.50
2022-11-04T09:50:44.412Z,11.52
2022-11-04T09:53:27.097Z,11.60
2022-11-04T09:56:01.416Z,11.60
2022-11-04T09:58:37.896Z,11.60
2022-11-04T10:01:28.242Z,11.60
2022-11-04T10:04:52.167Z,11.70
2022-11-04T10:08:00.102Z,11.70
2022-11-04T10:10:47.758Z,11.70
2022-11-04T10:14:11.691Z,11.70
2022-11-04T10:16:57.149Z,11.70
2022-11-04T10:19:27.631Z,11.74
2022-11-04T10:22:08.336Z,11.80
2022-11-04T10:25:13.462Z,11.86
2022-11-04T10:27:47.311Z,11.90
2022-11-04T10:30:22.747Z,11.90
2022-11-04T10:33:11.897Z,12.00
2022-11-04T10:35:57.505Z,12.00
2022-11-04T10:38:55.801Z,12.00
2022-11-04T10:41:33.309Z,12.02
2022-11-04T10:44:12.304Z,12.00
2022-11-04T10:47:12.715Z,12.00
2022-11-04T10:50:28.275Z,12.10
2022-11-04T10:53:19.331Z,12.10
2022-11-04T10:56:21.549Z,12.20
2022-11-04T10:58:49.341Z,12.20
2022-11-04T11:01:29.626Z,12.20
2022-11-04T11:03:58.900Z,12.20
2022-11-04T11:06:32.174Z,12.28
2022-11-04T11:09:17.880Z,12.30
2022-11-04T11:11:50.398Z,12.30
2022-11-04T11:14:33.161Z,12.30
2022-11-04T11:17:16.452Z,12.40
2022-11-04T11:20:08.365Z,12.40
2022-11-04T11:22:44.943Z,12.40
2022-11-04T11:25:31.289Z,12.40
2022-11-04T11:28:07.085Z,12.40
2022-11-04T11:30:59.028Z,12.40
2022-11-04T11:33:30.078Z,12.40
2022-11-04T11:36:05.131Z,12.40
2022-11-04T11:38:34.640Z,12.40
2022-11-04T11:41:25.568Z,12.40
2022-11-04T11:43:56.560Z,12.40
2022-11-04T11:46:28.452Z,12.40
2022-11-04T11:49:03.745Z,12.44
2022-11-04T11:51:35.501Z,12.50
2022-11-04T11:54:22.943Z,12.50
2022-11-04T11:57:13.462Z,12.50
2022-11-04T12:03:03.070Z,12.42
2022-11-04T12:09:19.338Z,12.40
2022-11-04T12:12:12.540Z,12.40
2022-11-04T12:14:49.334Z,12.40
2022-11-04T12:17:22.993Z,12.40
2022-11-04T12:20:11.685Z,12.50
2022-11-04T12:23:06.094Z,12.50
2022-11-04T12:26:13.629Z,12.52
2022-11-04T12:29:01.055Z,12.54
2022-11-04T12:32:29.827Z,12.58
2022-11-04T12:35:40.412Z,12.60
2022-11-04T12:38:29.487Z,12.56
2022-11-04T12:44:42.312Z,12.52
2022-11-04T12:47:36.045Z,12.60
2022-11-04T12:50:41.076Z,12.60
2022-11-04T12:53:27.196Z,12.60
2022-11-04T12:56:09.450Z,12.60
2022-11-04T12:59:34.187Z,12.60
2022-11-04T13:02:24.090Z,12.60
2022-11-04T13:05:21.076Z,12.60
2022-11-04T13:08:13.961Z,12.60
2022-11-04T13:11:22.753Z,12.68
2022-11-04T13:14:19.279Z,12.70
2022-11-04T13:16:51.745Z,12.70
2022-11-04T13:19:48.446Z,12.70
2022-11-04T13:22:25.801Z,12.80
2022-11-04T13:25:31.348Z,12.80
2022-11-04T13:28:00.984Z,12.80
2022-11-04T13:31:12.447Z,12.80
2022-11-04T13:34:04.452Z,12.82
2022-11-04T13:37:12.815Z,12.82
2022-11-04T13:39:59.588Z,12.80
2022-11-04T13:43:35.433Z,12.80
2022-11-04T13:46:08.421Z,12.80
2022-11-04T13:48:49.237Z,12.80
2022-11-04T13:51:19.164Z,12.86
2022-11-04T13:53:55.049Z,12.90
2022-11-04T13:56:34.905Z,12.90
2022-11-04T13:59:28.975Z,12.90
2022-11-04T14:02:12.932Z,12.90
2022-11-04T14:04:47.543Z,12.90
2022-11-04T14:07:18.561Z,12.90
2022-11-04T14:09:55.685Z,12.90
2022-11-04T14:12:33.186Z,12.90
2022-11-04T14:15:10.915Z,12.94
2022-11-04T14:17:38.510Z,13.00
2022-11-04T14:20:06.565Z,13.02
2022-11-04T14:22:56.563Z,13.04
2022-11-04T14:25:40.075Z,13.02
2022-11-04T14:28:10.931Z,13.00
2022-11-04T14:30:44.410Z,13.00
2022-11-04T14:33:36.765Z,12.90
2022-11-04T14:36:21.177Z,12.90
2022-11-04T14:39:05.929Z,12.90
2022-11-04T14:41:58.523Z,12.90
2022-11-04T14:44:49.774Z,12.90
2022-11-04T14:47:33.127Z,12.92
2022-11-04T14:50:08.445Z,13.00
2022-11-04T14:52:42.045Z,12.92
2022-11-04T14:55:19.811Z,12.90
2022-11-04T14:57:54.711Z,12.90
2022-11-04T15:00:37.257Z,12.90
2022-11-04T15:06:11.514Z,12.90
2022-11-04T15:08:42.139Z,12.90
2022-11-04T15:11:17.876Z,12.96
2022-11-04T15:13:57.092Z,13.00
2022-11-04T15:16:29.860Z,13.00
2022-11-04T15:18:59.561Z,13.00
2022-11-04T15:21:27.589Z,13.00
2022-11-04T15:23:56.653Z,13.00
2022-11-04T15:26:31.769Z,13.00
2022-11-04T15:29:12.879Z,13.00
2022-11-04T15:32:04.537Z,13.00
2022-11-04T15:34:34.694Z,13.00
2022-11-04T15:37:05.916Z,13.00
2022-11-04T15:39:43.635Z,13.00
2022-11-04T15:42:59.282Z,13.00
2022-11-04T15:45:46.037Z,13.00
2022-11-04T15:48:37.841Z,12.90
2022-11-04T15:51:22.807Z,12.90
2022-11-04T15:54:06.100Z,12.84
2022-11-04T15:56:46.015Z,12.80
2022-11-04T15:59:21.330Z,12.80
2022-11-04T16:01:52.413Z,12.78
2022-11-04T16:04:26.392Z,12.80
2022-11-04T16:07:23.168Z,12.74
2022-11-04T16:09:54.851Z,12.80
2022-11-04T16:12:36.248Z,12.80
2022-11-04T16:15:04.651Z,12.80
2022-11-04T16:17:32.676Z,12.80
2022-11-04T16:20:06.144Z,12.74
2022-11-04T16:22:40.643Z,12.70
2022-11-04T16:25:21.870Z,12.70
2022-11-04T16:27:50.967Z,12.80
2022-11-04T16:30:23.780Z,12.70
2022-11-04T16:32:54.398Z,12.70
2022-11-04T16:35:27.704Z,12.70
2022-11-04T16:37:56.572Z,12.70
2022-11-04T16:40:25.952Z,12.70
2022-11-04T16:42:54.484Z,12.70
2022-11-04T16:45:27.068Z,12.70
2022-11-04T16:47:56.022Z,12.68
2022-11-04T16:50:25.120Z,12.64
2022-11-04T16:52:54.033Z,12.70
2022-11-04T16:55:24.536Z,12.70
2022-11-04T16:58:00.163Z,12.70
2022-11-04T17:00:32.122Z,12.70
2022-11-04T17:03:21.784Z,12.70
2022-11-04T17:05:54.355Z,12.70
2022-11-04T17:08:23.777Z,12.64
2022-11-04T17:10:52.315Z,12.60
2022-11-04T17:13:19.940Z,12.60
2022-11-04T17:15:48.285Z,12.60
2022-11-04T17:18:18.243Z,12.60
2022-11-04T17:20:52.023Z,12.60
2022-11-04T17:23:20.832Z,12.60
2022-11-04T17:25:49.193Z,12.60
2022-11-04T17:28:16.920Z,12.60
2022-11-04T17:30:45.030Z,12.60
2022-11-04T17:33:18.311Z,12.56
2022-11-04T17:35:49.452Z,12.50
2022-11-04T17:38:18.799Z,12.50
2022-11-04T17:41:05.769Z,12.50
2022-11-04T17:43:52.119Z,12.50
2022-11-04T17:46:35.080Z,12.50
2022-11-04T17:49:16.207Z,12.50
2022-11-04T17:51:48.018Z,12.50
2022-11-04T17:54:16.511Z,12.40
2022-11-04T17:56:44.243Z,12.40
2022-11-04T17:59:14.716Z,12.40
2022-11-04T18:01:45.235Z,12.40
2022-11-04T18:04:21.659Z,12.46
2022-11-04T18:06:50.747Z,12.48
2022-11-04T18:09:19.003Z,12.42
2022-11-04T18:12:05.465Z,12.40
2022-11-04T18:14:33.337Z,12.40
2022-11-04T18:17:01.185Z,12.40
2022-11-04T18:19:29.110Z,12.40
2022-11-04T18:21:57.112Z,12.40
2022-11-04T18:24:24.963Z,12.40
2022-11-04T18:26:53.352Z,12.40
2022-11-04T18:29:21.148Z,12.40
2022-11-04T18:31:49.928Z,12.40
2022-11-04T18:34:19.733Z,12.40
2022-11-04T18:36:49.025Z,12.30
2022-11-04T18:39:19.745Z,12.30
2022-11-04T18:41:47.832Z,12.30
2022-11-04T18:44:20.234Z,12.30
2022-11-04T18:46:49.984Z,12.30
2022-11-04T18:49:18.817Z,12.30
2022-11-04T18:51:47.035Z,12.30
2022-11-04T18:54:15.099Z,12.30
2022-11-04T18:56:43.782Z,12.30
2022-11-04T18:59:15.879Z,12.30
2022-11-04T19:01:45.619Z,12.30
2022-11-04T19:04:13.821Z,12.30
2022-11-04T19:06:44.677Z,12.30
2022-11-04T19:09:45.294Z,12.30
2022-11-04T19:12:23.407Z,12.20
2022-11-04T19:14:52.671Z,12.20
2022-11-04T19:17:20.833Z,12.14
2022-11-04T19:19:49.203Z,12.10
2022-11-04T19:22:16.959Z,12.12
2022-11-04T19:24:45.985Z,12.10
2022-11-04T19:27:14.425Z,12.10
2022-11-04T19:29:42.041Z,12.10
2022-11-04T19:32:14.237Z,12.10
2022-11-04T19:34:43.403Z,12.10
2022-11-04T19:37:11.464Z,12.10
2022-11-04T19:39:39.771Z,12.10
2022-11-04T19:42:28.303Z,12.12
2022-11-04T19:44:56.381Z,12.20
2022-11-04T19:47:24.519Z,12.20
2022-11-04T19:49:52.289Z,12.20
2022-11-04T19:52:20.453Z,12.20
2022-11-04T19:54:48.269Z,12.20
2022-11-04T19:57:16.393Z,12.20
2022-11-04T19:59:44.049Z,12.20
2022-11-04T20:02:15.542Z,12.20
2022-11-04T20:04:43.249Z,12.20
2022-11-04T20:07:10.897Z,12.20
2022-11-04T20:09:39.382Z,12.20
2022-11-04T20:12:26.250Z,12.12
2022-11-04T20:14:57.689Z,12.10
2022-11-04T20:17:25.514Z,12.10
2022-11-04T20:19:53.256Z,12.10
2022-11-04T20:22:21.043Z,12.10
2022-11-04T20:24:48.682Z,12.10
2022-11-04T20:27:16.633Z,12.00
2022-11-04T20:29:44.412Z,12.00
2022-11-04T20:32:12.184Z,12.00
2022-11-04T20:34:40.103Z,12.00
2022-11-04T20:37:07.888Z,12.00
2022-11-04T20:39:35.759Z,12.00
2022-11-04T20:42:04.042Z,12.00
2022-11-04T20:44:32.773Z,12.00
2022-11-04T20:47:01.179Z,12.00
2022-11-04T20:49:29.246Z,12.00
2022-11-04T20:51:57.083Z,12.00
2022-11-04T20:54:24.879Z,11.90
2022-11-04T20:56:52.747Z,11.90
2022-11-04T20:59:20.415Z,11.90
2022-11-04T21:01:48.890Z,11.90
2022-11-04T21:04:19.894Z,11.90
2022-11-04T21:06:50.243Z,11.90
2022-11-04T21:09:21.309Z,11.90
2022-11-04T21:11:50.338Z,11.90
2022-11-04T21:14:19.552Z,11.90
2022-11-04T21:16:48.154Z,11.90
2022-11-04T21:19:16.295Z,12.00
2022-11-04T21:21:47.045Z,12.00
2022-11-04T21:24:16.628Z,12.10
2022-11-04T21:26:45.657Z,12.10
2022-11-04T21:29:19.320Z,12.10
2022-11-04T21:31:48.890Z,12.10
2022-11-04T21:34:16.662Z,12.08
2022-11-04T21:36:45.577Z,12.10
2022-11-04T21:39:13.408Z,12.10
2022-11-04T21:41:41.107Z,12.10
2022-11-04T21:44:13.097Z,12.10
2022-11-04T21:46:41.104Z,12.10
2022-11-04T21:49:12.241Z,12.08
2022-11-04T21:51:40.335Z,12.10
2022-11-04T21:54:08.496Z,12.10
2022-11-04T21:56:36.247Z,12.10
2022-11-04T21:59:05.273Z,12.10
2022-11-04T22:01:33.792Z,12.10
2022-11-04T22:04:02.689Z,12.10
2022-11-04T22:06:35.268Z,12.10
2022-11-04T22:09:06.803Z,12.10
2022-11-04T22:11:39.788Z,12.10
2022-11-04T22:14:08.589Z,12.10
2022-11-04T22:16:39.212Z,12.10
2022-11-04T22:19:10.736Z,12.10
2022-11-04T22:21:41.681Z,12.10
2022-11-04T22:24:15.911Z,12.10
2022-11-04T22:26:44.359Z,12.04
2022-11-04T22:29:12.116Z,12.00
2022-11-04T22:31:42.627Z,12.00
2022-11-04T22:34:10.486Z,12.00
2022-11-04T22:36:38.539Z,12.00
2022-11-04T22:39:08.314Z,12.00
2022-11-04T22:41:38.311Z,12.00
2022-11-04T22:44:05.942Z,12.00
2022-11-04T22:46:35.195Z,12.00
2022-11-04T22:49:02.881Z,12.00
2022-11-04T22:51:32.447Z,12.00
2022-11-04T22:54:06.475Z,11.90
2022-11-04T22:56:36.812Z,11.90
2022-11-04T22:59:05.207Z,11.90
2022-11-04T23:01:33.814Z,11.90
2022-11-04T23:04:01.942Z,11.90
2022-11-04T23:06:30.356Z,11.80
2022-11-04T23:09:00.317Z,11.80
2022-11-04T23:11:49.354Z,11.80
2022-11-04T23:14:39.933Z,11.80
2022-11-04T23:17:36.012Z,11.76
2022-11-04T23:20:08.490Z,11.70
2022-11-04T23:22:54.865Z,11.70
2022-11-04T23:25:23.670Z,11.62
2022-11-04T23:28:14.166Z,11.60
2022-11-04T23:30:46.524Z,11.60
2022-11-04T23:33:15.347Z,11.60
2022-11-04T23:36:06.316Z,11.56
2022-11-04T23:38:35.388Z,11.50
2022-11-04T23:41:26.226Z,11.50
2022-11-04T23:43:53.883Z,11.50
2022-11-04T23:46:43.477Z,11.50
2022-11-04T23:49:30.980Z,11.56
2022-11-04T23:52:17.396Z,11.54
2022-11-04T23:55:04.104Z,11.50
2022-11-04T23:57:50.511Z,11.50
